East Rochester, OH (44625)

1:34 AM EST on November 26, 2014 (GMT -0500)
Guilford Lake State Park | Change Station
CLOSE
Current Station
Personal Weather Station
Location: Hanoverton, OH
Elevation: 1168 ft
Nearby Weather Stations

Elev 1168 ft 40.80 °N, 80.88 °W | Updated 24 seconds ago

Mostly Cloudy
Mostly Cloudy
29.1 °F
Feels Like 29 °F
N
0.0
Wind Variable Wind from NNE
Gusts 0.0 mph

Today
High -- | Low -- °F
--% Chance of Precip.
Yesterday
High -- | Low -- °F
Precip. -- in
7:23 AM 4:58 PM
Waxing Crescent, 17% visible
Pressure 30.21 in
Visibility 8.0 miles
Clouds Few 2500 ft
Scattered Clouds 20000 ft
Windchill 29 °F
Dew Point 27 °F
Humidity 91%
Rainfall 0.00 in
Snow Depth Not available.
UV 0 out of 12
Pollen .10 out of 12
Air Quality Not available.
Flu Activity Not available.
METAR KCAK 260551Z 02004KT 8SM FEW025 SCT200 M02/M04 A3018 RMK AO2 SLP230 T10171044 10017 21017 55004

More Conditions Fewer Conditions

Pressure 30.21 in
Visibility 8.0 miles
Clouds Few 2500 ft
Scattered Clouds 20000 ft
Windchill 29 °F
Dew Point 27 °F
Humidity 91%
Rainfall 0.00 in
Snow Depth Not available.
UV 0 out of 12
Pollen .10 out of 12
Air Quality Not available.
Flu Activity Not available.
METAR KCAK 260551Z 02004KT 8SM FEW025 SCT200 M02/M04 A3018 RMK AO2 SLP230 T10171044 10017 21017 55004

More Conditions Fewer Conditions

10-Day Weather Forecast

Almanac

Astronomy

Nov. 26, 2014 Rise Set
Actual Time
Civil Twilight
Nautical Twilight
Astronomical Twilight
Moon
Length of Visible Light
Length of Day
Tomorrow will be .
, % of the Moon is Illuminated

Today's Extremes

State Highs State Lows

Community

WunderPhotos

Upload Photos

1,773,691 photos uploaded!

WunderBlogs® & News

Nearby

Air Quality

  Air Quality AQ Index Pollutant
Not available.

Snow Depth

Station Depth Elevation

Earthquake Activity

City Distance Mag. Time & Date
Minimum magnitude displayed is 2.5.

Coastal Water Temperatures

Place Temperature

Nearby Weather Stations